createdAt,value
2022-08-27T00:01:22.885Z,13.60
2022-08-27T00:03:50.242Z,13.50
2022-08-27T00:06:20.183Z,13.50
2022-08-27T00:08:49.819Z,13.50
2022-08-27T00:11:20.347Z,13.50
2022-08-27T00:13:48.365Z,13.40
2022-08-27T00:16:17.299Z,13.40
2022-08-27T00:18:48.098Z,13.30
2022-08-27T00:21:19.219Z,13.20
2022-08-27T00:23:46.826Z,13.10
2022-08-27T00:26:15.256Z,13.10
2022-08-27T00:28:43.223Z,13.10
2022-08-27T00:31:12.129Z,13.10
2022-08-27T00:33:41.165Z,13.10
2022-08-27T00:36:15.042Z,13.00
2022-08-27T00:38:43.120Z,13.00
2022-08-27T00:41:12.458Z,12.90
2022-08-27T00:43:57.982Z,12.90
2022-08-27T00:46:38.780Z,12.90
2022-08-27T00:49:18.226Z,12.90
2022-08-27T00:51:52.424Z,12.80
2022-08-27T00:54:21.057Z,12.80
2022-08-27T00:56:51.909Z,12.70
2022-08-27T00:59:31.394Z,12.60
2022-08-27T01:02:18.009Z,12.50
2022-08-27T01:05:13.837Z,12.40
2022-08-27T01:07:44.016Z,12.30
2022-08-27T01:10:19.126Z,12.20
2022-08-27T01:12:53.232Z,12.20
2022-08-27T01:15:24.820Z,12.10
2022-08-27T01:17:52.646Z,12.10
2022-08-27T01:20:29.670Z,12.10
2022-08-27T01:23:39.573Z,12.00
2022-08-27T01:26:08.430Z,12.00
2022-08-27T01:28:37.772Z,12.00
2022-08-27T01:31:10.739Z,12.10
2022-08-27T01:33:39.117Z,12.10
2022-08-27T01:36:07.254Z,12.10
2022-08-27T01:38:34.632Z,12.10
2022-08-27T01:41:03.537Z,12.10
2022-08-27T01:43:31.692Z,12.20
2022-08-27T01:45:59.150Z,12.20
2022-08-27T01:48:26.238Z,12.20
2022-08-27T01:50:53.397Z,12.10
2022-08-27T01:53:24.577Z,12.10
2022-08-27T01:55:53.661Z,12.20
2022-08-27T01:58:25.327Z,12.20
2022-08-27T02:00:56.631Z,12.20
2022-08-27T02:03:24.774Z,12.20
2022-08-27T02:05:52.461Z,12.20
2022-08-27T02:08:19.984Z,12.20
2022-08-27T02:10:49.753Z,12.20
2022-08-27T02:13:18.723Z,12.10
2022-08-27T02:15:45.777Z,12.10
2022-08-27T02:18:13.894Z,12.10
2022-08-27T02:20:43.845Z,12.10
2022-08-27T02:23:11.482Z,12.00
2022-08-27T02:25:38.757Z,12.00
2022-08-27T02:28:06.421Z,11.90
2022-08-27T02:30:34.535Z,11.90
2022-08-27T02:33:04.527Z,11.80
2022-08-27T02:35:38.823Z,11.70
2022-08-27T02:38:08.018Z,11.70
2022-08-27T02:40:35.990Z,11.60
2022-08-27T02:43:03.725Z,11.60
2022-08-27T02:45:30.724Z,11.60
2022-08-27T02:47:58.018Z,11.60
2022-08-27T02:50:27.342Z,11.60
2022-08-27T02:52:54.984Z,11.50
2022-08-27T02:55:22.852Z,11.50
2022-08-27T02:57:50.027Z,11.50
2022-08-27T03:00:22.578Z,11.50
2022-08-27T03:02:49.999Z,11.50
2022-08-27T03:05:18.344Z,11.50
2022-08-27T03:07:45.842Z,11.50
2022-08-27T03:10:16.514Z,11.50
2022-08-27T03:12:44.347Z,11.60
2022-08-27T03:15:15.987Z,11.50
2022-08-27T03:18:02.315Z,11.50
2022-08-27T03:20:29.808Z,11.40
2022-08-27T03:22:57.118Z,11.30
2022-08-27T03:25:24.335Z,11.30
2022-08-27T03:27:51.377Z,11.20
2022-08-27T03:30:22.146Z,11.20
2022-08-27T03:32:50.286Z,11.10
2022-08-27T03:35:19.575Z,11.00
2022-08-27T03:37:47.137Z,11.00
2022-08-27T03:40:15.058Z,11.00
2022-08-27T03:42:42.316Z,11.10
2022-08-27T03:45:11.162Z,11.00
2022-08-27T03:47:38.678Z,11.10
2022-08-27T03:50:07.351Z,11.10
2022-08-27T03:52:36.244Z,11.10
2022-08-27T03:55:05.858Z,11.00
2022-08-27T03:57:33.483Z,11.00
2022-08-27T04:00:01.238Z,10.90
2022-08-27T04:02:29.004Z,10.90
2022-08-27T04:04:57.800Z,10.90
2022-08-27T04:07:24.847Z,10.90
2022-08-27T04:09:51.931Z,10.90
2022-08-27T04:12:18.924Z,11.00
2022-08-27T04:14:49.264Z,11.10
2022-08-27T04:17:18.993Z,11.10
2022-08-27T04:19:45.906Z,11.00
2022-08-27T04:22:13.153Z,11.00
2022-08-27T04:24:40.748Z,11.00
2022-08-27T04:27:07.696Z,11.10
2022-08-27T04:29:35.092Z,11.00
2022-08-27T04:32:03.400Z,11.00
2022-08-27T04:34:30.931Z,10.90
2022-08-27T04:36:58.545Z,10.80
2022-08-27T04:39:28.224Z,10.80
2022-08-27T04:41:58.587Z,10.80
2022-08-27T04:44:36.331Z,10.80
2022-08-27T04:47:05.869Z,10.90
2022-08-27T04:49:34.040Z,10.80
2022-08-27T04:52:01.476Z,10.80
2022-08-27T04:54:33.067Z,10.80
2022-08-27T04:57:05.680Z,10.80
2022-08-27T04:59:33.455Z,10.80
2022-08-27T05:02:01.546Z,10.80
2022-08-27T05:04:32.070Z,10.90
2022-08-27T05:07:00.590Z,10.90
2022-08-27T05:09:27.526Z,10.90
2022-08-27T05:11:56.204Z,11.00
2022-08-27T05:14:25.481Z,11.00
2022-08-27T05:16:52.360Z,11.00
2022-08-27T05:19:19.248Z,11.00
2022-08-27T05:21:51.878Z,11.00
2022-08-27T05:24:19.284Z,11.00
2022-08-27T05:26:46.445Z,11.00
2022-08-27T05:29:14.286Z,11.10
2022-08-27T05:31:42.693Z,11.10
2022-08-27T05:34:16.537Z,11.20
2022-08-27T05:36:51.864Z,11.30
2022-08-27T05:39:18.955Z,11.30
2022-08-27T05:41:45.942Z,11.40
2022-08-27T05:44:39.585Z,11.50
2022-08-27T05:47:00.144Z,11.60
2022-08-27T05:49:27.084Z,11.70
2022-08-27T05:51:54.003Z,11.80
2022-08-27T05:54:20.915Z,11.90
2022-08-27T05:56:49.922Z,11.90
2022-08-27T05:59:46.459Z,12.10
2022-08-27T06:02:13.436Z,12.20
2022-08-27T06:04:40.447Z,12.40
2022-08-27T06:07:10.675Z,12.50
2022-08-27T06:09:39.158Z,12.60
2022-08-27T06:12:07.004Z,12.70
2022-08-27T06:14:41.001Z,12.80
2022-08-27T06:17:08.012Z,12.90
2022-08-27T06:19:36.374Z,13.10
2022-08-27T06:22:10.350Z,13.20
2022-08-27T06:24:41.428Z,13.30
2022-08-27T06:27:26.756Z,13.50
2022-08-27T06:29:53.778Z,13.60
2022-08-27T06:32:21.011Z,13.70
2022-08-27T06:34:47.961Z,13.90
2022-08-27T06:37:14.964Z,14.00
2022-08-27T06:39:41.894Z,14.20
2022-08-27T06:42:12.441Z,14.30
2022-08-27T06:44:40.284Z,14.50
2022-08-27T06:47:07.253Z,14.70
2022-08-27T06:49:34.155Z,14.80
2022-08-27T06:52:01.577Z,15.00
2022-08-27T06:54:28.512Z,15.10
2022-08-27T06:57:00.516Z,15.40
2022-08-27T06:59:27.883Z,15.70
2022-08-27T07:01:54.874Z,16.00
2022-08-27T07:04:25.370Z,16.60
2022-08-27T07:06:59.817Z,17.30
2022-08-27T07:09:27.132Z,18.30
2022-08-27T07:11:57.391Z,19.60
2022-08-27T07:14:25.024Z,20.80
2022-08-27T07:16:52.592Z,21.80
2022-08-27T07:19:24.249Z,22.70
2022-08-27T07:21:51.943Z,23.30
2022-08-27T07:24:19.674Z,22.90
2022-08-27T07:26:46.903Z,22.40
2022-08-27T07:29:15.505Z,21.70
2022-08-27T07:31:43.894Z,21.20
2022-08-27T07:34:10.880Z,20.80
2022-08-27T07:36:38.618Z,20.50
2022-08-27T07:39:09.376Z,20.30
2022-08-27T07:41:56.723Z,20.00
2022-08-27T07:44:27.995Z,20.10
2022-08-27T07:46:57.187Z,20.60
2022-08-27T07:49:25.929Z,21.80
2022-08-27T07:51:53.388Z,22.90
2022-08-27T07:54:22.900Z,24.30
2022-08-27T07:56:55.462Z,25.40
2022-08-27T07:59:25.091Z,26.20
2022-08-27T08:01:55.887Z,26.70
2022-08-27T08:04:23.439Z,26.90
2022-08-27T08:06:51.706Z,27.00
2022-08-27T08:09:20.367Z,27.00
2022-08-27T08:11:47.333Z,27.00
2022-08-27T08:14:14.375Z,27.00
2022-08-27T08:16:41.470Z,26.80
2022-08-27T08:19:09.391Z,26.70
2022-08-27T08:21:36.781Z,26.50
2022-08-27T08:24:07.203Z,26.20
2022-08-27T08:26:36.907Z,26.00
2022-08-27T08:29:08.875Z,25.80
2022-08-27T08:31:42.303Z,25.60
2022-08-27T08:34:17.104Z,25.40
2022-08-27T08:36:59.454Z,25.50
2022-08-27T08:39:34.786Z,25.60
2022-08-27T08:42:09.385Z,25.60
2022-08-27T08:44:54.816Z,25.30
2022-08-27T08:47:53.847Z,25.20
2022-08-27T08:50:30.702Z,25.10
2022-08-27T08:53:38.855Z,25.00
2022-08-27T08:56:19.132Z,25.00
2022-08-27T08:59:14.530Z,24.90
2022-08-27T09:01:44.805Z,24.90
2022-08-27T09:04:13.117Z,25.00
2022-08-27T09:06:58.345Z,24.90
2022-08-27T09:09:55.953Z,24.70
2022-08-27T09:12:30.598Z,24.60
2022-08-27T09:15:06.337Z,24.40
2022-08-27T09:17:40.276Z,24.30
2022-08-27T09:20:13.224Z,24.20
2022-08-27T09:23:31.200Z,24.40
2022-08-27T09:25:58.108Z,24.50
2022-08-27T09:28:47.152Z,24.60
2022-08-27T09:31:19.029Z,24.60
2022-08-27T09:33:56.488Z,24.80
2022-08-27T09:36:24.922Z,25.00
2022-08-27T09:39:02.473Z,25.20
2022-08-27T09:41:46.419Z,25.60
2022-08-27T09:44:18.463Z,25.90
2022-08-27T09:47:03.425Z,25.80
2022-08-27T09:49:34.449Z,26.00
2022-08-27T09:52:02.259Z,26.00
2022-08-27T09:54:43.591Z,25.70
2022-08-27T09:57:13.226Z,25.50
2022-08-27T09:59:53.220Z,25.40
2022-08-27T10:02:25.193Z,25.00
2022-08-27T10:05:17.497Z,24.70
2022-08-27T10:07:55.476Z,24.40
2022-08-27T10:10:43.633Z,24.10
2022-08-27T10:13:24.269Z,23.90
2022-08-27T10:16:38.950Z,23.80
2022-08-27T10:19:14.690Z,23.70
2022-08-27T10:22:16.275Z,23.50
2022-08-27T10:25:14.284Z,23.30
2022-08-27T10:28:41.556Z,23.20
2022-08-27T10:31:23.037Z,23.60
2022-08-27T10:34:13.849Z,23.70
2022-08-27T10:37:36.834Z,23.60
2022-08-27T10:40:24.451Z,23.60
2022-08-27T10:43:42.540Z,23.60
2022-08-27T10:46:50.078Z,23.90
2022-08-27T10:49:43.318Z,24.50
2022-08-27T10:52:31.950Z,25.10
2022-08-27T10:55:10.280Z,26.00
2022-08-27T10:58:01.170Z,26.40
2022-08-27T11:00:59.915Z,26.60
2022-08-27T11:03:42.013Z,26.70
2022-08-27T11:06:32.495Z,26.60
2022-08-27T11:09:07.854Z,26.60
2022-08-27T11:12:14.176Z,27.00
2022-08-27T11:14:56.836Z,27.30
2022-08-27T11:17:51.559Z,27.40
2022-08-27T11:20:31.224Z,27.70
2022-08-27T11:23:31.266Z,27.40
2022-08-27T11:26:04.033Z,27.20
2022-08-27T11:28:39.768Z,27.40
2022-08-27T11:31:44.337Z,27.30
2022-08-27T11:34:19.766Z,27.70
2022-08-27T11:37:16.853Z,28.40
2022-08-27T11:39:57.056Z,28.90
2022-08-27T11:42:44.434Z,29.30
2022-08-27T11:45:31.222Z,29.20
2022-08-27T11:48:14.790Z,28.70
2022-08-27T11:50:41.818Z,28.30
2022-08-27T11:53:09.130Z,27.60
2022-08-27T11:55:39.150Z,27.00
2022-08-27T11:58:26.021Z,26.90
2022-08-27T12:00:54.059Z,26.90
2022-08-27T12:03:30.450Z,27.10
2022-08-27T12:05:57.899Z,27.30
2022-08-27T12:08:32.103Z,27.30
2022-08-27T12:11:31.457Z,27.10
2022-08-27T12:14:17.548Z,26.70
2022-08-27T12:17:14.490Z,26.30
2022-08-27T12:19:58.624Z,25.90
2022-08-27T12:23:25.306Z,25.60
2022-08-27T12:26:25.941Z,25.50
2022-08-27T12:29:24.631Z,25.30
2022-08-27T12:32:42.669Z,25.60
2022-08-27T12:35:21.211Z,26.00
2022-08-27T12:37:56.994Z,26.10
2022-08-27T12:40:30.723Z,26.00
2022-08-27T12:43:10.853Z,25.50
2022-08-27T12:45:51.431Z,25.10
2022-08-27T12:48:27.681Z,24.70
2022-08-27T12:51:02.996Z,24.70
2022-08-27T12:54:10.419Z,24.60
2022-08-27T12:57:02.752Z,24.50
2022-08-27T12:59:57.216Z,24.50
2022-08-27T13:03:09.112Z,24.60
2022-08-27T13:05:49.682Z,24.80
2022-08-27T13:08:32.945Z,24.90
2022-08-27T13:11:21.852Z,25.50
2022-08-27T13:13:50.339Z,26.40
2022-08-27T13:16:20.063Z,27.20
2022-08-27T13:18:49.906Z,27.60
2022-08-27T13:21:27.532Z,27.80
2022-08-27T13:24:00.346Z,27.90
2022-08-27T13:26:33.969Z,27.90
2022-08-27T13:29:03.807Z,27.90
2022-08-27T13:31:32.232Z,27.40
2022-08-27T13:34:00.491Z,26.90
2022-08-27T13:36:47.792Z,26.50
2022-08-27T13:39:14.758Z,26.10
2022-08-27T13:41:41.924Z,25.90
2022-08-27T13:44:19.876Z,25.90
2022-08-27T13:46:51.011Z,25.70
2022-08-27T13:49:24.931Z,25.60
2022-08-27T13:52:14.983Z,25.50
2022-08-27T13:54:49.478Z,25.40
2022-08-27T13:57:32.417Z,25.20
2022-08-27T14:00:23.088Z,25.10
2022-08-27T14:02:56.113Z,25.00
2022-08-27T14:05:23.393Z,24.90
2022-08-27T14:08:14.357Z,24.80
2022-08-27T14:10:47.134Z,25.00
2022-08-27T14:13:23.504Z,25.40
2022-08-27T14:15:56.855Z,25.80
2022-08-27T14:18:58.005Z,26.10
2022-08-27T14:21:24.139Z,26.50
2022-08-27T14:23:53.997Z,26.90
2022-08-27T14:26:21.448Z,27.20
2022-08-27T14:28:48.711Z,27.00
2022-08-27T14:31:16.661Z,26.70
2022-08-27T14:33:43.711Z,26.20
2022-08-27T14:36:11.414Z,25.80
2022-08-27T14:38:43.100Z,25.60
2022-08-27T14:41:10.452Z,25.50
2022-08-27T14:43:38.300Z,25.20
2022-08-27T14:46:08.198Z,25.00
2022-08-27T14:48:36.839Z,24.90
2022-08-27T14:51:26.497Z,24.70
2022-08-27T14:53:54.226Z,24.90
2022-08-27T14:56:24.007Z,25.20
2022-08-27T14:58:51.804Z,25.40
2022-08-27T15:01:29.574Z,25.70
2022-08-27T15:03:57.670Z,25.70
2022-08-27T15:06:25.244Z,25.30
2022-08-27T15:08:53.896Z,25.10
2022-08-27T15:11:25.549Z,24.80
2022-08-27T15:13:59.987Z,24.70
2022-08-27T15:16:33.226Z,24.50
2022-08-27T15:19:01.588Z,24.30
2022-08-27T15:21:30.638Z,24.30
2022-08-27T15:24:03.126Z,24.20
2022-08-27T15:26:30.317Z,24.30
2022-08-27T15:28:57.473Z,24.30
2022-08-27T15:31:24.654Z,24.30
2022-08-27T15:33:51.914Z,24.30
2022-08-27T15:36:18.936Z,24.40
2022-08-27T15:38:45.879Z,24.40
2022-08-27T15:41:13.156Z,24.40
2022-08-27T15:43:40.343Z,24.30
2022-08-27T15:46:08.689Z,24.20
2022-08-27T15:48:35.840Z,24.10
2022-08-27T15:51:07.689Z,24.10
2022-08-27T15:53:35.286Z,24.00
2022-08-27T15:56:06.080Z,24.00
2022-08-27T15:58:35.259Z,23.90
2022-08-27T16:01:10.321Z,23.90
2022-08-27T16:03:39.301Z,24.00
2022-08-27T16:06:06.894Z,24.20
2022-08-27T16:08:36.777Z,24.30
2022-08-27T16:11:09.161Z,24.50
2022-08-27T16:13:36.735Z,24.70
2022-08-27T16:16:06.181Z,24.90
2022-08-27T16:18:34.733Z,24.90
2022-08-27T16:21:04.142Z,25.00
2022-08-27T16:23:32.743Z,25.20
2022-08-27T16:26:00.744Z,25.10
2022-08-27T16:28:27.648Z,25.10
2022-08-27T16:31:01.701Z,24.90
2022-08-27T16:33:28.807Z,24.80
2022-08-27T16:35:55.888Z,24.70
2022-08-27T16:38:23.271Z,24.70
2022-08-27T16:40:54.327Z,24.40
2022-08-27T16:43:25.633Z,24.20
2022-08-27T16:45:55.761Z,24.00
2022-08-27T16:48:42.864Z,23.80
2022-08-27T16:51:18.303Z,23.60
2022-08-27T16:53:54.930Z,23.50
2022-08-27T16:56:28.578Z,23.40
2022-08-27T16:58:56.336Z,23.30
2022-08-27T17:01:25.197Z,23.20
2022-08-27T17:04:09.207Z,23.20
2022-08-27T17:06:39.745Z,23.10
2022-08-27T17:09:07.790Z,23.00
2022-08-27T17:11:36.031Z,23.00
2022-08-27T17:14:04.586Z,23.00
2022-08-27T17:16:34.933Z,22.90
2022-08-27T17:19:05.198Z,22.80
2022-08-27T17:21:34.788Z,22.80
2022-08-27T17:24:02.629Z,22.90
2022-08-27T17:26:32.339Z,22.90
2022-08-27T17:29:00.035Z,22.90
2022-08-27T17:31:35.743Z,22.80
2022-08-27T17:34:04.053Z,22.80
2022-08-27T17:36:32.045Z,22.80
2022-08-27T17:39:02.629Z,22.80
2022-08-27T17:41:40.299Z,22.80
2022-08-27T17:44:27.474Z,22.80
2022-08-27T17:46:58.399Z,22.80
2022-08-27T17:49:27.274Z,22.70
2022-08-27T17:52:17.391Z,22.70
2022-08-27T17:54:48.617Z,22.60
2022-08-27T17:57:29.401Z,22.60
2022-08-27T18:00:09.706Z,22.50
2022-08-27T18:02:47.425Z,22.40
2022-08-27T18:05:16.976Z,22.40
2022-08-27T18:07:45.636Z,22.30
2022-08-27T18:10:18.500Z,22.20
2022-08-27T18:12:46.422Z,22.10
2022-08-27T18:15:25.742Z,22.10
2022-08-27T18:17:54.176Z,22.00
2022-08-27T18:20:28.126Z,21.90
2022-08-27T18:22:58.945Z,21.80
2022-08-27T18:25:35.253Z,21.80
2022-08-27T18:28:08.766Z,21.80
2022-08-27T18:30:36.177Z,21.60
2022-08-27T18:33:03.800Z,21.60
2022-08-27T18:35:33.372Z,21.60
2022-08-27T18:38:01.322Z,21.60
2022-08-27T18:40:36.111Z,21.50
2022-08-27T18:43:05.101Z,21.40
2022-08-27T18:45:33.291Z,21.40
2022-08-27T18:48:02.412Z,21.30
2022-08-27T18:50:30.025Z,21.30
2022-08-27T18:52:57.852Z,21.20
2022-08-27T18:55:28.159Z,21.20
2022-08-27T18:57:55.592Z,21.10
2022-08-27T19:00:22.934Z,21.10
2022-08-27T19:02:52.842Z,21.10
2022-08-27T19:05:26.650Z,21.00
2022-08-27T19:07:55.288Z,21.00
2022-08-27T19:10:23.181Z,21.00
2022-08-27T19:12:50.100Z,21.00
2022-08-27T19:15:17.506Z,20.90
2022-08-27T19:17:50.447Z,20.80
2022-08-27T19:20:18.689Z,20.80
2022-08-27T19:22:47.496Z,20.70
2022-08-27T19:25:16.404Z,20.50
2022-08-27T19:27:44.403Z,20.50
2022-08-27T19:30:13.617Z,20.40
2022-08-27T19:32:40.840Z,20.30
2022-08-27T19:35:09.015Z,20.20
2022-08-27T19:37:44.228Z,20.20
2022-08-27T19:40:15.537Z,20.10
2022-08-27T19:42:42.569Z,20.00
2022-08-27T19:45:10.421Z,20.00
2022-08-27T19:47:37.702Z,19.90
2022-08-27T19:50:05.652Z,19.80
2022-08-27T19:52:32.551Z,19.70
2022-08-27T19:55:15.061Z,19.70
2022-08-27T19:57:43.813Z,19.60
2022-08-27T20:00:14.107Z,19.50
2022-08-27T20:02:43.840Z,19.40
2022-08-27T20:05:19.232Z,19.40
2022-08-27T20:07:49.633Z,19.20
2022-08-27T20:10:19.075Z,19.20
2022-08-27T20:12:46.030Z,19.20
2022-08-27T20:15:13.311Z,19.10
2022-08-27T20:17:40.630Z,19.10
2022-08-27T20:20:08.837Z,19.00
2022-08-27T20:22:35.970Z,18.90
2022-08-27T20:25:02.968Z,18.80
2022-08-27T20:27:30.160Z,18.70
2022-08-27T20:29:57.419Z,18.60
2022-08-27T20:32:29.701Z,18.50
2022-08-27T20:34:57.733Z,18.40
2022-08-27T20:37:24.783Z,18.30
2022-08-27T20:39:52.531Z,18.30
2022-08-27T20:42:20.307Z,18.10
2022-08-27T20:44:48.098Z,18.00
2022-08-27T20:47:17.215Z,18.00
2022-08-27T20:49:44.703Z,17.90
2022-08-27T20:52:13.056Z,17.90
2022-08-27T20:54:40.382Z,17.80
2022-08-27T20:57:08.926Z,17.70
2022-08-27T20:59:54.521Z,17.70
2022-08-27T21:02:26.248Z,17.60
2022-08-27T21:04:58.119Z,17.60
2022-08-27T21:07:25.419Z,17.60
2022-08-27T21:09:55.854Z,17.50
2022-08-27T21:12:29.102Z,17.50
2022-08-27T21:14:58.084Z,17.50
2022-08-27T21:17:28.183Z,17.50
2022-08-27T21:19:56.104Z,17.50
2022-08-27T21:22:24.311Z,17.60
2022-08-27T21:24:52.310Z,17.60
2022-08-27T21:27:21.295Z,17.60
2022-08-27T21:29:48.868Z,17.60
2022-08-27T21:32:16.946Z,17.70
2022-08-27T21:34:44.221Z,17.60
2022-08-27T21:37:13.877Z,17.70
2022-08-27T21:39:42.600Z,17.60
2022-08-27T21:42:12.385Z,17.60
2022-08-27T21:44:39.771Z,17.70
2022-08-27T21:47:07.119Z,17.60
2022-08-27T21:49:34.683Z,17.60
2022-08-27T21:52:06.073Z,17.60
2022-08-27T21:54:37.547Z,17.60
2022-08-27T21:57:06.306Z,17.60
2022-08-27T21:59:43.392Z,17.60
2022-08-27T22:02:35.738Z,17.60
2022-08-27T22:04:57.724Z,17.60
2022-08-27T22:07:24.766Z,17.60
2022-08-27T22:09:51.683Z,17.60
2022-08-27T22:12:18.781Z,17.50
2022-08-27T22:14:45.694Z,17.50
2022-08-27T22:17:15.784Z,17.50
2022-08-27T22:19:42.990Z,17.50
2022-08-27T22:22:10.045Z,17.40
2022-08-27T22:24:36.988Z,17.50
2022-08-27T22:27:04.417Z,17.40
2022-08-27T22:29:31.630Z,17.30
2022-08-27T22:31:58.886Z,17.30
2022-08-27T22:34:25.846Z,17.20
2022-08-27T22:36:53.067Z,17.20
2022-08-27T22:39:20.435Z,17.10
2022-08-27T22:41:49.173Z,17.00
2022-08-27T22:44:16.304Z,17.00
2022-08-27T22:46:43.261Z,17.00
2022-08-27T22:49:10.493Z,16.90
2022-08-27T22:51:38.843Z,16.90
2022-08-27T22:54:05.787Z,16.80
2022-08-27T22:56:32.972Z,16.70
2022-08-27T22:59:00.505Z,16.60
2022-08-27T23:01:27.885Z,16.60
2022-08-27T23:03:55.873Z,16.50
2022-08-27T23:06:22.953Z,16.40
2022-08-27T23:08:49.884Z,16.40
2022-08-27T23:11:17.419Z,16.30
2022-08-27T23:13:45.428Z,16.30
2022-08-27T23:16:13.919Z,16.20
2022-08-27T23:18:42.689Z,16.10
2022-08-27T23:21:10.502Z,16.10
2022-08-27T23:23:38.573Z,16.10
2022-08-27T23:26:24.327Z,16.10
2022-08-27T23:28:51.257Z,16.10
2022-08-27T23:31:18.882Z,16.10
2022-08-27T23:33:46.632Z,16.10
2022-08-27T23:36:13.617Z,16.00
2022-08-27T23:38:40.567Z,16.00
2022-08-27T23:41:08.346Z,15.90
2022-08-27T23:43:35.260Z,15.90
2022-08-27T23:46:02.265Z,15.90
2022-08-27T23:48:29.207Z,15.80
2022-08-27T23:50:56.314Z,15.80
2022-08-27T23:53:23.229Z,15.80
2022-08-27T23:55:50.162Z,15.80
2022-08-27T23:58:17.153Z,15.80
